sensor_id;sensor_type;location;lat;lon;timestamp;pressure;altitude;pressure_sealevel;temperature;humidity
56689;BME280;42565;53.342;-1.534;2022-07-21T00:00:23;99426.10;;;21.05;45.52
56689;BME280;42565;53.342;-1.534;2022-07-21T00:02:51;99426.09;;;21.08;45.40
56689;BME280;42565;53.342;-1.534;2022-07-21T00:05:19;99428.16;;;20.69;46.07
56689;BME280;42565;53.342;-1.534;2022-07-21T00:07:47;99428.83;;;20.45;46.23
56689;BME280;42565;53.342;-1.534;2022-07-21T00:10:14;99432.18;;;20.37;47.13
56689;BME280;42565;53.342;-1.534;2022-07-21T00:12:42;99430.05;;;20.51;46.61
56689;BME280;42565;53.342;-1.534;2022-07-21T00:15:10;99431.04;;;20.48;46.60
56689;BME280;42565;53.342;-1.534;2022-07-21T00:17:38;99432.45;;;20.63;46.25
56689;BME280;42565;53.342;-1.534;2022-07-21T00:20:08;99431.92;;;20.83;45.57
56689;BME280;42565;53.342;-1.534;2022-07-21T00:22:37;99433.91;;;20.77;45.64
56689;BME280;42565;53.342;-1.534;2022-07-21T00:25:06;99433.19;;;20.94;45.86
56689;BME280;42565;53.342;-1.534;2022-07-21T00:27:33;99432.01;;;20.97;45.47
56689;BME280;42565;53.342;-1.534;2022-07-21T00:30:01;99431.40;;;20.63;46.35
56689;BME280;42565;53.342;-1.534;2022-07-21T00:32:28;99437.17;;;20.62;46.85
56689;BME280;42565;53.342;-1.534;2022-07-21T00:34:55;99434.69;;;20.24;46.66
56689;BME280;42565;53.342;-1.534;2022-07-21T00:37:22;99432.74;;;21.01;46.14
56689;BME280;42565;53.342;-1.534;2022-07-21T00:39:50;99430.12;;;20.88;45.91
56689;BME280;42565;53.342;-1.534;2022-07-21T00:42:21;99432.10;;;20.97;45.68
56689;BME280;42565;53.342;-1.534;2022-07-21T00:44:49;99435.52;;;20.79;45.97
56689;BME280;42565;53.342;-1.534;2022-07-21T00:47:19;99437.69;;;21.26;44.83
56689;BME280;42565;53.342;-1.534;2022-07-21T00:49:47;99441.75;;;20.47;46.06
56689;BME280;42565;53.342;-1.534;2022-07-21T00:52:14;99443.40;;;20.73;46.05
56689;BME280;42565;53.342;-1.534;2022-07-21T00:54:42;99446.53;;;20.42;46.24
56689;BME280;42565;53.342;-1.534;2022-07-21T00:57:10;99447.87;;;20.95;45.76
56689;BME280;42565;53.342;-1.534;2022-07-21T00:59:37;99447.07;;;21.04;46.03
56689;BME280;42565;53.342;-1.534;2022-07-21T01:02:05;99450.00;;;20.73;45.76
56689;BME280;42565;53.342;-1.534;2022-07-21T01:04:32;99452.29;;;20.82;45.90
56689;BME280;42565;53.342;-1.534;2022-07-21T01:07:01;99456.17;;;20.57;45.98
56689;BME280;42565;53.342;-1.534;2022-07-21T01:09:29;99463.76;;;20.58;46.30
56689;BME280;42565;53.342;-1.534;2022-07-21T01:11:57;99461.69;;;20.37;46.08
56689;BME280;42565;53.342;-1.534;2022-07-21T01:14:24;99463.68;;;21.02;45.31
56689;BME280;42565;53.342;-1.534;2022-07-21T01:16:52;99464.25;;;21.28;44.69
56689;BME280;42565;53.342;-1.534;2022-07-21T01:19:19;99462.95;;;21.23;44.44
56689;BME280;42565;53.342;-1.534;2022-07-21T01:21:48;99464.68;;;21.21;44.78
56689;BME280;42565;53.342;-1.534;2022-07-21T01:24:16;99466.25;;;21.15;44.90
56689;BME280;42565;53.342;-1.534;2022-07-21T01:26:45;99466.79;;;21.22;45.18
56689;BME280;42565;53.342;-1.534;2022-07-21T01:29:14;99469.05;;;20.77;45.99
56689;BME280;42565;53.342;-1.534;2022-07-21T01:31:44;99469.01;;;20.91;45.86
56689;BME280;42565;53.342;-1.534;2022-07-21T01:34:12;99472.99;;;20.92;45.80
56689;BME280;42565;53.342;-1.534;2022-07-21T01:36:40;99472.95;;;20.84;46.01
56689;BME280;42565;53.342;-1.534;2022-07-21T01:39:07;99469.99;;;20.85;45.65
56689;BME280;42565;53.342;-1.534;2022-07-21T01:41:35;99473.33;;;20.72;46.14
56689;BME280;42565;53.342;-1.534;2022-07-21T01:44:04;99475.92;;;20.47;46.76
56689;BME280;42565;53.342;-1.534;2022-07-21T01:46:34;99476.61;;;20.56;46.30
56689;BME280;42565;53.342;-1.534;2022-07-21T01:49:02;99478.60;;;20.98;45.91
56689;BME280;42565;53.342;-1.534;2022-07-21T01:51:29;99478.05;;;20.71;46.01
56689;BME280;42565;53.342;-1.534;2022-07-21T01:53:56;99478.34;;;20.55;46.34
56689;BME280;42565;53.342;-1.534;2022-07-21T01:56:24;99474.59;;;21.08;45.69
56689;BME280;42565;53.342;-1.534;2022-07-21T01:58:56;99476.47;;;21.06;46.18
56689;BME280;42565;53.342;-1.534;2022-07-21T02:01:25;99477.33;;;20.82;46.21
56689;BME280;42565;53.342;-1.534;2022-07-21T02:03:55;99483.21;;;20.46;46.83
56689;BME280;42565;53.342;-1.534;2022-07-21T02:06:23;99481.70;;;20.94;45.73
56689;BME280;42565;53.342;-1.534;2022-07-21T02:08:51;99482.56;;;21.24;45.49
56689;BME280;42565;53.342;-1.534;2022-07-21T02:11:19;99483.58;;;21.57;44.70
56689;BME280;42565;53.342;-1.534;2022-07-21T02:13:47;99485.10;;;21.49;44.73
56689;BME280;42565;53.342;-1.534;2022-07-21T02:16:14;99488.58;;;21.72;44.59
56689;BME280;42565;53.342;-1.534;2022-07-21T02:18:43;99490.75;;;21.56;44.49
56689;BME280;42565;53.342;-1.534;2022-07-21T02:21:10;99487.90;;;21.67;44.30
56689;BME280;42565;53.342;-1.534;2022-07-21T02:23:37;99488.13;;;21.28;44.94
56689;BME280;42565;53.342;-1.534;2022-07-21T02:26:05;99490.67;;;21.28;44.91
56689;BME280;42565;53.342;-1.534;2022-07-21T02:28:32;99492.05;;;20.72;45.95
56689;BME280;42565;53.342;-1.534;2022-07-21T02:31:00;99491.08;;;20.93;45.72
56689;BME280;42565;53.342;-1.534;2022-07-21T02:33:27;99490.33;;;21.26;45.19
56689;BME280;42565;53.342;-1.534;2022-07-21T02:35:55;99491.63;;;21.11;45.28
56689;BME280;42565;53.342;-1.534;2022-07-21T02:38:22;99489.69;;;21.00;45.52
56689;BME280;42565;53.342;-1.534;2022-07-21T02:40:49;99487.96;;;20.76;45.97
56689;BME280;42565;53.342;-1.534;2022-07-21T02:43:17;99489.24;;;21.61;45.48
56689;BME280;42565;53.342;-1.534;2022-07-21T02:45:44;99491.31;;;20.82;46.21
56689;BME280;42565;53.342;-1.534;2022-07-21T02:48:12;99489.41;;;20.77;46.49
56689;BME280;42565;53.342;-1.534;2022-07-21T02:50:41;99486.61;;;20.82;46.00
56689;BME280;42565;53.342;-1.534;2022-07-21T02:53:11;99487.22;;;21.30;45.51
56689;BME280;42565;53.342;-1.534;2022-07-21T02:55:39;99490.58;;;21.11;45.46
56689;BME280;42565;53.342;-1.534;2022-07-21T02:58:09;99489.95;;;21.21;45.85
56689;BME280;42565;53.342;-1.534;2022-07-21T03:00:39;99488.53;;;21.02;45.97
56689;BME280;42565;53.342;-1.534;2022-07-21T03:03:07;99486.34;;;21.03;45.61
56689;BME280;42565;53.342;-1.534;2022-07-21T03:05:35;99483.23;;;20.86;45.93
56689;BME280;42565;53.342;-1.534;2022-07-21T03:08:03;99479.22;;;20.65;46.24
56689;BME280;42565;53.342;-1.534;2022-07-21T03:10:30;99479.32;;;21.24;46.09
56689;BME280;42565;53.342;-1.534;2022-07-21T03:12:58;99481.85;;;21.40;45.77
56689;BME280;42565;53.342;-1.534;2022-07-21T03:15:25;99481.91;;;20.91;45.72
56689;BME280;42565;53.342;-1.534;2022-07-21T03:17:52;99480.37;;;20.93;46.15
56689;BME280;42565;53.342;-1.534;2022-07-21T03:20:22;99481.72;;;20.56;46.80
56689;BME280;42565;53.342;-1.534;2022-07-21T03:22:49;99476.70;;;20.83;46.45
56689;BME280;42565;53.342;-1.534;2022-07-21T03:25:17;99479.61;;;20.71;46.71
56689;BME280;42565;53.342;-1.534;2022-07-21T03:27:45;99481.86;;;20.91;46.74
56689;BME280;42565;53.342;-1.534;2022-07-21T03:30:12;99479.72;;;21.15;45.92
56689;BME280;42565;53.342;-1.534;2022-07-21T03:32:41;99479.21;;;21.10;45.76
56689;BME280;42565;53.342;-1.534;2022-07-21T03:35:10;99479.34;;;20.92;45.65
56689;BME280;42565;53.342;-1.534;2022-07-21T03:37:41;99482.90;;;21.11;45.41
56689;BME280;42565;53.342;-1.534;2022-07-21T03:40:10;99481.58;;;21.30;45.49
56689;BME280;42565;53.342;-1.534;2022-07-21T03:42:39;99486.44;;;21.42;44.86
56689;BME280;42565;53.342;-1.534;2022-07-21T03:45:07;99487.90;;;21.17;45.21
56689;BME280;42565;53.342;-1.534;2022-07-21T03:47:34;99489.96;;;21.60;44.83
56689;BME280;42565;53.342;-1.534;2022-07-21T03:50:03;99492.88;;;20.44;46.40
56689;BME280;42565;53.342;-1.534;2022-07-21T03:52:31;99494.08;;;20.70;46.83
56689;BME280;42565;53.342;-1.534;2022-07-21T03:54:58;99493.13;;;19.93;47.75
56689;BME280;42565;53.342;-1.534;2022-07-21T03:57:26;99498.61;;;20.14;47.84
56689;BME280;42565;53.342;-1.534;2022-07-21T03:59:53;99499.23;;;19.99;48.10
56689;BME280;42565;53.342;-1.534;2022-07-21T04:02:20;99499.12;;;20.75;47.53
56689;BME280;42565;53.342;-1.534;2022-07-21T04:04:47;99501.39;;;19.82;48.38
56689;BME280;42565;53.342;-1.534;2022-07-21T04:07:15;99506.82;;;20.11;47.74
56689;BME280;42565;53.342;-1.534;2022-07-21T04:09:42;99504.10;;;20.02;47.79
56689;BME280;42565;53.342;-1.534;2022-07-21T04:12:10;99506.17;;;19.83;47.79
56689;BME280;42565;53.342;-1.534;2022-07-21T04:14:37;99513.16;;;20.09;47.69
56689;BME280;42565;53.342;-1.534;2022-07-21T04:17:05;99510.07;;;19.58;48.65
56689;BME280;42565;53.342;-1.534;2022-07-21T04:19:31;99512.12;;;19.90;48.29
56689;BME280;42565;53.342;-1.534;2022-07-21T04:21:59;99514.40;;;20.04;48.57
56689;BME280;42565;53.342;-1.534;2022-07-21T04:24:26;99518.68;;;20.24;48.02
56689;BME280;42565;53.342;-1.534;2022-07-21T04:26:54;99520.17;;;20.07;48.71
56689;BME280;42565;53.342;-1.534;2022-07-21T04:29:21;99521.41;;;20.55;47.76
56689;BME280;42565;53.342;-1.534;2022-07-21T04:31:48;99528.11;;;20.68;47.97
56689;BME280;42565;53.342;-1.534;2022-07-21T04:34:15;99533.36;;;20.25;49.28
56689;BME280;42565;53.342;-1.534;2022-07-21T04:36:42;99536.84;;;20.21;48.53
56689;BME280;42565;53.342;-1.534;2022-07-21T04:39:09;99538.88;;;19.89;49.87
56689;BME280;42565;53.342;-1.534;2022-07-21T04:41:37;99544.10;;;19.60;49.09
56689;BME280;42565;53.342;-1.534;2022-07-21T04:44:04;99545.17;;;19.77;49.59
56689;BME280;42565;53.342;-1.534;2022-07-21T04:46:31;99546.86;;;19.98;50.09
56689;BME280;42565;53.342;-1.534;2022-07-21T04:48:58;99549.51;;;19.75;50.08
56689;BME280;42565;53.342;-1.534;2022-07-21T04:51:25;99551.53;;;20.01;49.08
56689;BME280;42565;53.342;-1.534;2022-07-21T04:53:53;99550.60;;;19.79;49.53
56689;BME280;42565;53.342;-1.534;2022-07-21T04:56:20;99551.23;;;19.50;49.54
56689;BME280;42565;53.342;-1.534;2022-07-21T04:58:48;99551.43;;;19.70;49.35
56689;BME280;42565;53.342;-1.534;2022-07-21T05:01:14;99550.49;;;19.38;50.44
56689;BME280;42565;53.342;-1.534;2022-07-21T05:03:41;99549.52;;;19.31;50.35
56689;BME280;42565;53.342;-1.534;2022-07-21T05:06:08;99551.58;;;19.62;49.53
56689;BME280;42565;53.342;-1.534;2022-07-21T05:08:36;99553.90;;;19.85;50.00
56689;BME280;42565;53.342;-1.534;2022-07-21T05:11:03;99556.07;;;19.56;50.19
56689;BME280;42565;53.342;-1.534;2022-07-21T05:13:30;99560.45;;;19.68;50.07
56689;BME280;42565;53.342;-1.534;2022-07-21T05:15:58;99559.94;;;19.43;50.31
56689;BME280;42565;53.342;-1.534;2022-07-21T05:18:26;99567.26;;;19.61;50.22
56689;BME280;42565;53.342;-1.534;2022-07-21T05:20:54;99566.54;;;19.76;50.14
56689;BME280;42565;53.342;-1.534;2022-07-21T05:23:21;99567.08;;;19.47;50.12
56689;BME280;42565;53.342;-1.534;2022-07-21T05:25:48;99570.41;;;19.80;49.78
56689;BME280;42565;53.342;-1.534;2022-07-21T05:28:16;99571.31;;;20.35;49.58
56689;BME280;42565;53.342;-1.534;2022-07-21T05:30:44;99570.91;;;19.30;50.70
56689;BME280;42565;53.342;-1.534;2022-07-21T05:33:11;99571.24;;;19.47;51.23
56689;BME280;42565;53.342;-1.534;2022-07-21T05:35:39;99573.83;;;19.57;51.30
56689;BME280;42565;53.342;-1.534;2022-07-21T05:38:06;99577.80;;;19.28;51.16
56689;BME280;42565;53.342;-1.534;2022-07-21T05:40:34;99579.87;;;19.51;50.58
56689;BME280;42565;53.342;-1.534;2022-07-21T05:43:01;99581.20;;;19.63;50.67
56689;BME280;42565;53.342;-1.534;2022-07-21T05:45:29;99578.78;;;19.63;50.38
56689;BME280;42565;53.342;-1.534;2022-07-21T05:47:56;99586.01;;;19.70;50.18
56689;BME280;42565;53.342;-1.534;2022-07-21T05:50:23;99590.30;;;19.33;50.85
56689;BME280;42565;53.342;-1.534;2022-07-21T05:52:50;99591.77;;;20.07;49.88
56689;BME280;42565;53.342;-1.534;2022-07-21T05:55:27;99593.60;;;19.89;50.49
56689;BME280;42565;53.342;-1.534;2022-07-21T05:57:55;99596.17;;;20.11;49.75
56689;BME280;42565;53.342;-1.534;2022-07-21T06:00:22;99600.76;;;20.32;49.75
56689;BME280;42565;53.342;-1.534;2022-07-21T06:02:49;99605.80;;;20.48;49.61
56689;BME280;42565;53.342;-1.534;2022-07-21T06:05:16;99607.62;;;20.58;49.03
56689;BME280;42565;53.342;-1.534;2022-07-21T06:07:43;99608.88;;;20.25;49.29
56689;BME280;42565;53.342;-1.534;2022-07-21T06:10:11;99611.63;;;20.32;48.70
56689;BME280;42565;53.342;-1.534;2022-07-21T06:12:38;99613.96;;;20.73;48.29
56689;BME280;42565;53.342;-1.534;2022-07-21T06:15:06;99617.69;;;20.52;48.87
56689;BME280;42565;53.342;-1.534;2022-07-21T06:17:38;99618.62;;;20.44;48.94
56689;BME280;42565;53.342;-1.534;2022-07-21T06:20:08;99620.13;;;20.70;48.54
56689;BME280;42565;53.342;-1.534;2022-07-21T06:22:36;99619.37;;;20.93;48.37
56689;BME280;42565;53.342;-1.534;2022-07-21T06:25:04;99617.29;;;21.18;47.81
56689;BME280;42565;53.342;-1.534;2022-07-21T06:27:32;99621.54;;;20.85;48.64
56689;BME280;42565;53.342;-1.534;2022-07-21T06:29:59;99622.06;;;21.04;48.66
56689;BME280;42565;53.342;-1.534;2022-07-21T06:32:26;99620.18;;;20.62;48.94
56689;BME280;42565;53.342;-1.534;2022-07-21T06:34:54;99620.84;;;20.47;49.75
56689;BME280;42565;53.342;-1.534;2022-07-21T06:37:21;99624.79;;;20.50;48.91
56689;BME280;42565;53.342;-1.534;2022-07-21T06:39:47;99630.05;;;20.59;49.22
56689;BME280;42565;53.342;-1.534;2022-07-21T06:42:14;99632.09;;;20.83;48.97
56689;BME280;42565;53.342;-1.534;2022-07-21T06:44:42;99636.08;;;20.80;49.23
56689;BME280;42565;53.342;-1.534;2022-07-21T06:47:08;99641.53;;;20.82;48.81
56689;BME280;42565;53.342;-1.534;2022-07-21T06:49:36;99642.44;;;21.00;48.65
56689;BME280;42565;53.342;-1.534;2022-07-21T06:52:03;99649.97;;;20.83;48.74
56689;BME280;42565;53.342;-1.534;2022-07-21T06:54:30;99649.68;;;21.13;49.08
56689;BME280;42565;53.342;-1.534;2022-07-21T06:56:58;99652.27;;;20.99;48.98
56689;BME280;42565;53.342;-1.534;2022-07-21T06:59:25;99655.04;;;20.93;49.98
56689;BME280;42565;53.342;-1.534;2022-07-21T07:01:53;99653.69;;;20.53;49.81
56689;BME280;42565;53.342;-1.534;2022-07-21T07:04:21;99658.78;;;20.76;50.11
56689;BME280;42565;53.342;-1.534;2022-07-21T07:06:48;99667.33;;;20.38;51.44
56689;BME280;42565;53.342;-1.534;2022-07-21T07:09:15;99671.20;;;19.85;52.85
56689;BME280;42565;53.342;-1.534;2022-07-21T07:11:42;99676.41;;;20.29;51.53
56689;BME280;42565;53.342;-1.534;2022-07-21T07:14:09;99674.11;;;19.64;51.82
56689;BME280;42565;53.342;-1.534;2022-07-21T07:16:36;99680.54;;;20.11;51.40
56689;BME280;42565;53.342;-1.534;2022-07-21T07:19:03;99677.20;;;19.86;50.53
56689;BME280;42565;53.342;-1.534;2022-07-21T07:21:31;99672.83;;;19.72;50.97
56689;BME280;42565;53.342;-1.534;2022-07-21T07:23:58;99682.25;;;20.22;51.23
56689;BME280;42565;53.342;-1.534;2022-07-21T07:26:25;99685.37;;;20.34;50.69
56689;BME280;42565;53.342;-1.534;2022-07-21T07:28:53;99687.71;;;20.35;49.95
56689;BME280;42565;53.342;-1.534;2022-07-21T07:31:20;99690.58;;;20.03;50.06
56689;BME280;42565;53.342;-1.534;2022-07-21T07:33:47;99687.92;;;20.46;49.73
56689;BME280;42565;53.342;-1.534;2022-07-21T07:36:13;99684.57;;;20.22;50.21
56689;BME280;42565;53.342;-1.534;2022-07-21T07:38:40;99687.81;;;20.49;50.17
56689;BME280;42565;53.342;-1.534;2022-07-21T07:41:08;99687.79;;;20.31;49.81
56689;BME280;42565;53.342;-1.534;2022-07-21T07:43:35;99686.35;;;20.68;49.74
56689;BME280;42565;53.342;-1.534;2022-07-21T07:46:03;99687.77;;;20.54;49.43
56689;BME280;42565;53.342;-1.534;2022-07-21T07:48:30;99688.51;;;20.48;49.66
56689;BME280;42565;53.342;-1.534;2022-07-21T07:50:58;99688.46;;;20.21;49.14
56689;BME280;42565;53.342;-1.534;2022-07-21T07:53:25;99687.45;;;20.18;49.14
56689;BME280;42565;53.342;-1.534;2022-07-21T07:55:53;99686.08;;;20.73;49.01
56689;BME280;42565;53.342;-1.534;2022-07-21T07:58:20;99690.74;;;21.04;48.91
56689;BME280;42565;53.342;-1.534;2022-07-21T08:00:46;99693.02;;;21.08;48.32
56689;BME280;42565;53.342;-1.534;2022-07-21T08:03:14;99692.89;;;20.73;47.50
56689;BME280;42565;53.342;-1.534;2022-07-21T08:05:42;99694.63;;;20.90;48.26
56689;BME280;42565;53.342;-1.534;2022-07-21T08:08:09;99693.56;;;20.81;48.38
56689;BME280;42565;53.342;-1.534;2022-07-21T08:10:37;99692.39;;;20.96;48.62
56689;BME280;42565;53.342;-1.534;2022-07-21T08:13:04;99692.19;;;20.87;47.96
56689;BME280;42565;53.342;-1.534;2022-07-21T08:15:32;99694.53;;;21.29;48.04
56689;BME280;42565;53.342;-1.534;2022-07-21T08:17:58;99696.56;;;21.67;47.12
56689;BME280;42565;53.342;-1.534;2022-07-21T08:20:25;99700.29;;;21.93;46.48
56689;BME280;42565;53.342;-1.534;2022-07-21T08:22:53;99705.55;;;22.39;45.53
56689;BME280;42565;53.342;-1.534;2022-07-21T08:25:20;99701.83;;;22.33;45.51
56689;BME280;42565;53.342;-1.534;2022-07-21T08:27:48;99705.57;;;22.23;45.57
56689;BME280;42565;53.342;-1.534;2022-07-21T08:30:15;99706.82;;;21.82;46.57
56689;BME280;42565;53.342;-1.534;2022-07-21T08:32:43;99709.17;;;22.13;46.44
56689;BME280;42565;53.342;-1.534;2022-07-21T08:35:10;99711.38;;;22.02;46.63
56689;BME280;42565;53.342;-1.534;2022-07-21T08:37:40;99711.21;;;21.86;46.31
56689;BME280;42565;53.342;-1.534;2022-07-21T08:40:10;99710.21;;;21.62;46.44
56689;BME280;42565;53.342;-1.534;2022-07-21T08:42:37;99711.06;;;21.72;46.37
56689;BME280;42565;53.342;-1.534;2022-07-21T08:45:06;99715.34;;;21.65;46.63
56689;BME280;42565;53.342;-1.534;2022-07-21T08:47:35;99714.58;;;22.10;45.94
56689;BME280;42565;53.342;-1.534;2022-07-21T08:50:03;99713.24;;;21.89;46.27
56689;BME280;42565;53.342;-1.534;2022-07-21T08:52:30;99715.60;;;22.14;44.72
56689;BME280;42565;53.342;-1.534;2022-07-21T08:54:58;99720.39;;;22.15;44.71
56689;BME280;42565;53.342;-1.534;2022-07-21T08:57:25;99722.98;;;22.38;44.59
56689;BME280;42565;53.342;-1.534;2022-07-21T08:59:53;99721.90;;;22.57;44.23
56689;BME280;42565;53.342;-1.534;2022-07-21T09:02:29;99724.13;;;22.10;44.64
56689;BME280;42565;53.342;-1.534;2022-07-21T09:04:57;99724.89;;;22.00;45.39
56689;BME280;42565;53.342;-1.534;2022-07-21T09:07:25;99727.11;;;22.15;44.73
56689;BME280;42565;53.342;-1.534;2022-07-21T09:09:57;99729.44;;;22.69;44.51
56689;BME280;42565;53.342;-1.534;2022-07-21T09:12:24;99727.50;;;22.19;44.47
56689;BME280;42565;53.342;-1.534;2022-07-21T09:14:52;99728.47;;;22.60;44.25
56689;BME280;42565;53.342;-1.534;2022-07-21T09:17:19;99730.13;;;22.03;44.49
56689;BME280;42565;53.342;-1.534;2022-07-21T09:19:47;99729.62;;;22.45;44.72
56689;BME280;42565;53.342;-1.534;2022-07-21T09:22:15;99731.73;;;22.79;44.66
56689;BME280;42565;53.342;-1.534;2022-07-21T09:24:48;99731.64;;;22.51;45.60
56689;BME280;42565;53.342;-1.534;2022-07-21T09:27:17;99733.44;;;22.82;44.83
56689;BME280;42565;53.342;-1.534;2022-07-21T09:29:58;99735.85;;;22.94;44.97
56689;BME280;42565;53.342;-1.534;2022-07-21T09:32:27;99739.32;;;22.24;45.57
56689;BME280;42565;53.342;-1.534;2022-07-21T09:35:01;99736.58;;;22.09;44.25
56689;BME280;42565;53.342;-1.534;2022-07-21T09:37:29;99734.68;;;22.43;45.14
56689;BME280;42565;53.342;-1.534;2022-07-21T09:40:04;99736.21;;;22.07;44.99
56689;BME280;42565;53.342;-1.534;2022-07-21T09:43:02;99735.53;;;22.46;44.28
56689;BME280;42565;53.342;-1.534;2022-07-21T09:45:37;99738.39;;;22.69;44.64
56689;BME280;42565;53.342;-1.534;2022-07-21T09:48:05;99743.81;;;23.00;44.39
56689;BME280;42565;53.342;-1.534;2022-07-21T09:50:32;99746.59;;;22.94;43.25
56689;BME280;42565;53.342;-1.534;2022-07-21T09:53:00;99749.66;;;23.09;43.58
56689;BME280;42565;53.342;-1.534;2022-07-21T09:55:26;99747.07;;;22.82;43.53
56689;BME280;42565;53.342;-1.534;2022-07-21T09:57:56;99748.19;;;22.62;44.15
56689;BME280;42565;53.342;-1.534;2022-07-21T10:00:23;99753.52;;;22.86;44.32
56689;BME280;42565;53.342;-1.534;2022-07-21T10:02:50;99750.17;;;23.30;43.53
56689;BME280;42565;53.342;-1.534;2022-07-21T10:05:20;99750.19;;;23.06;43.69
56689;BME280;42565;53.342;-1.534;2022-07-21T10:07:48;99751.71;;;22.88;44.02
56689;BME280;42565;53.342;-1.534;2022-07-21T10:10:16;99756.50;;;23.34;44.45
56689;BME280;42565;53.342;-1.534;2022-07-21T10:12:45;99753.67;;;23.18;44.74
56689;BME280;42565;53.342;-1.534;2022-07-21T10:15:12;99753.74;;;23.29;44.34
56689;BME280;42565;53.342;-1.534;2022-07-21T10:17:40;99753.52;;;22.95;44.45
56689;BME280;42565;53.342;-1.534;2022-07-21T10:20:13;99756.96;;;23.10;43.78
56689;BME280;42565;53.342;-1.534;2022-07-21T10:23:06;99756.31;;;23.11;44.01
56689;BME280;42565;53.342;-1.534;2022-07-21T10:25:38;99758.29;;;22.98;44.03
56689;BME280;42565;53.342;-1.534;2022-07-21T10:28:15;99758.34;;;23.08;43.74
56689;BME280;42565;53.342;-1.534;2022-07-21T10:30:44;99759.94;;;23.10;43.47
56689;BME280;42565;53.342;-1.534;2022-07-21T10:33:13;99755.65;;;23.09;42.35
56689;BME280;42565;53.342;-1.534;2022-07-21T10:35:42;99750.39;;;22.62;42.09
56689;BME280;42565;53.342;-1.534;2022-07-21T10:38:25;99754.55;;;22.78;42.78
56689;BME280;42565;53.342;-1.534;2022-07-21T10:40:55;99751.91;;;22.70;43.48
56689;BME280;42565;53.342;-1.534;2022-07-21T10:43:36;99757.92;;;22.36;43.63
56689;BME280;42565;53.342;-1.534;2022-07-21T10:46:32;99758.04;;;22.26;44.62
56689;BME280;42565;53.342;-1.534;2022-07-21T10:49:00;99756.78;;;22.43;42.46
56689;BME280;42565;53.342;-1.534;2022-07-21T10:51:27;99754.26;;;21.96;45.20
56689;BME280;42565;53.342;-1.534;2022-07-21T10:55:13;99753.07;;;21.91;44.84
56689;BME280;42565;53.342;-1.534;2022-07-21T10:57:41;99757.91;;;22.08;46.25
56689;BME280;42565;53.342;-1.534;2022-07-21T11:00:25;99759.33;;;21.71;45.55
56689;BME280;42565;53.342;-1.534;2022-07-21T11:02:55;99761.36;;;22.28;44.17
56689;BME280;42565;53.342;-1.534;2022-07-21T11:05:25;99765.14;;;22.25;44.27
56689;BME280;42565;53.342;-1.534;2022-07-21T11:08:31;99764.43;;;22.27;44.18
56689;BME280;42565;53.342;-1.534;2022-07-21T11:11:07;99763.10;;;21.85;43.75
56689;BME280;42565;53.342;-1.534;2022-07-21T11:13:59;99760.17;;;21.65;44.73
56689;BME280;42565;53.342;-1.534;2022-07-21T11:16:58;99762.96;;;21.41;45.49
56689;BME280;42565;53.342;-1.534;2022-07-21T11:19:27;99765.02;;;21.93;44.87
56689;BME280;42565;53.342;-1.534;2022-07-21T11:21:55;99763.93;;;22.01;43.76
56689;BME280;42565;53.342;-1.534;2022-07-21T11:24:24;99764.75;;;21.95;43.83
56689;BME280;42565;53.342;-1.534;2022-07-21T11:26:54;99765.21;;;22.11;45.34
56689;BME280;42565;53.342;-1.534;2022-07-21T11:29:22;99767.02;;;21.66;45.58
56689;BME280;42565;53.342;-1.534;2022-07-21T11:31:50;99767.62;;;21.18;46.55
56689;BME280;42565;53.342;-1.534;2022-07-21T11:34:17;99768.26;;;21.21;47.44
56689;BME280;42565;53.342;-1.534;2022-07-21T11:36:45;99768.03;;;21.37;45.16
56689;BME280;42565;53.342;-1.534;2022-07-21T11:39:14;99769.33;;;21.31;45.17
56689;BME280;42565;53.342;-1.534;2022-07-21T11:41:42;99772.80;;;21.66;44.62
56689;BME280;42565;53.342;-1.534;2022-07-21T11:44:11;99773.67;;;21.67;44.87
56689;BME280;42565;53.342;-1.534;2022-07-21T11:46:47;99773.77;;;21.87;44.86
56689;BME280;42565;53.342;-1.534;2022-07-21T11:49:15;99774.97;;;21.66;44.65
56689;BME280;42565;53.342;-1.534;2022-07-21T11:51:48;99774.00;;;20.59;48.20
56689;BME280;42565;53.342;-1.534;2022-07-21T11:54:25;99773.45;;;21.14;46.79
56689;BME280;42565;53.342;-1.534;2022-07-21T11:56:54;99772.56;;;21.14;47.32
56689;BME280;42565;53.342;-1.534;2022-07-21T11:59:23;99772.00;;;21.46;46.92
56689;BME280;42565;53.342;-1.534;2022-07-21T12:01:54;99773.57;;;21.74;46.06
56689;BME280;42565;53.342;-1.534;2022-07-21T12:04:33;99774.35;;;21.23;45.98
56689;BME280;42565;53.342;-1.534;2022-07-21T12:07:03;99773.17;;;21.02;46.18
56689;BME280;42565;53.342;-1.534;2022-07-21T12:09:31;99779.20;;;21.68;46.08
56689;BME280;42565;53.342;-1.534;2022-07-21T12:11:59;99777.25;;;21.45;44.55
56689;BME280;42565;53.342;-1.534;2022-07-21T12:14:45;99774.38;;;21.47;44.96
56689;BME280;42565;53.342;-1.534;2022-07-21T12:17:13;99772.67;;;20.62;46.45
56689;BME280;42565;53.342;-1.534;2022-07-21T12:19:40;99772.52;;;21.31;45.79
56689;BME280;42565;53.342;-1.534;2022-07-21T12:22:07;99773.35;;;21.22;45.34
56689;BME280;42565;53.342;-1.534;2022-07-21T12:24:53;99775.35;;;22.14;43.51
56689;BME280;42565;53.342;-1.534;2022-07-21T12:27:21;99775.32;;;22.23;43.82
56689;BME280;42565;53.342;-1.534;2022-07-21T12:29:49;99779.52;;;21.62;44.08
56689;BME280;42565;53.342;-1.534;2022-07-21T12:32:38;99779.39;;;21.46;44.13
56689;BME280;42565;53.342;-1.534;2022-07-21T12:35:05;99774.81;;;21.88;43.99
56689;BME280;42565;53.342;-1.534;2022-07-21T12:38:07;99774.28;;;22.11;44.17
56689;BME280;42565;53.342;-1.534;2022-07-21T12:40:37;99774.62;;;21.99;44.13
56689;BME280;42565;53.342;-1.534;2022-07-21T12:43:09;99775.51;;;22.11;43.43
56689;BME280;42565;53.342;-1.534;2022-07-21T12:45:46;99778.47;;;22.29;43.95
56689;BME280;42565;53.342;-1.534;2022-07-21T12:48:16;99775.64;;;22.39;43.60
56689;BME280;42565;53.342;-1.534;2022-07-21T12:50:58;99778.51;;;21.87;43.77
56689;BME280;42565;53.342;-1.534;2022-07-21T12:53:25;99777.88;;;22.39;42.51
56689;BME280;42565;53.342;-1.534;2022-07-21T12:55:53;99774.44;;;22.97;42.09
56689;BME280;42565;53.342;-1.534;2022-07-21T12:58:21;99774.76;;;22.27;42.25
56689;BME280;42565;53.342;-1.534;2022-07-21T13:00:49;99773.35;;;22.22;42.44